Pagina principale
METAR-TAF:

METAR-TAF

Aeroporti :

Zanjan, Iran

latitudine: 36-41N, longitudine: 048-29E, altezza: 1663 m

Osservazione

Il bollettino è stato emesso 8 ore e 31 minuti fa, alle 15:00 UTC
Vento calmo
Temperature 28°C
Umidità 27%
Pressione 1016 hPa
Visibilità 10 km o più
Poco nuvoloso ad un'altezza di 3000 ft, Cumulonembo.
Nubi sparse ad un'altezza di 3500 ft

METAR: OITZ 291500Z 00000KT 9999 FEW030CB SCT035 28/07 Q1016

Ora: 04:01 (23:31 UTC)


TAF: mancante

Osservazioni e previsioni meteorologiche di più di 4000 aeroporti (messaggi METAR e TAF).

Le stazioni disponibili sono rappresentate dai dischi gialli e rossi sulla carta.

Puntare il mouse per vedere il nome della stazione.

Clicca sopra per visualizzare le osservazioni e previsioni meteorologiche.

Per cambiare la mappa : fare clic sui pulsanti verdi con una croce nera per ingrandire, il pulsante verde con un trattino per diminuire, o sulla freccia verde per le mappe adiacenti.


METAR-TAF: